sensor_id;sensor_type;location;lat;lon;timestamp;pressure;altitude;pressure_sealevel;temperature;humidity
56518;BME280;42419;48.760;2.322;2022-12-18T00:01:41;101610.06;;;30.63;17.18
56518;BME280;42419;48.760;2.322;2022-12-18T00:04:21;101630.78;;;30.66;17.21
56518;BME280;42419;48.760;2.322;2022-12-18T00:06:46;101634.16;;;30.69;16.55
56518;BME280;42419;48.760;2.322;2022-12-18T00:09:12;101610.31;;;30.60;17.08
56518;BME280;42419;48.760;2.322;2022-12-18T00:11:38;101639.16;;;30.76;16.85
56518;BME280;42419;48.760;2.322;2022-12-18T00:14:03;101616.00;;;30.70;17.03
56518;BME280;42419;48.760;2.322;2022-12-18T00:16:29;101595.84;;;30.60;17.30
56518;BME280;42419;48.760;2.322;2022-12-18T00:18:57;101612.50;;;30.68;17.13
56518;BME280;42419;48.760;2.322;2022-12-18T00:21:23;101635.22;;;30.80;16.80
56518;BME280;42419;48.760;2.322;2022-12-18T00:23:49;101644.38;;;30.79;16.51
56518;BME280;42419;48.760;2.322;2022-12-18T00:26:18;101631.13;;;30.74;16.51
56518;BME280;42419;48.760;2.322;2022-12-18T00:28:44;101642.00;;;30.74;16.65
56518;BME280;42419;48.760;2.322;2022-12-18T00:31:19;101653.53;;;30.78;16.56
56518;BME280;42419;48.760;2.322;2022-12-18T00:33:45;101632.84;;;30.75;16.85
56518;BME280;42419;48.760;2.322;2022-12-18T00:36:13;101636.34;;;30.77;16.51
56518;BME280;42419;48.760;2.322;2022-12-18T00:38:38;101641.53;;;30.80;16.82
56518;BME280;42419;48.760;2.322;2022-12-18T00:41:06;101640.66;;;30.80;16.46
56518;BME280;42419;48.760;2.322;2022-12-18T00:43:32;101654.59;;;30.75;16.85
56518;BME280;42419;48.760;2.322;2022-12-18T00:46:00;101641.31;;;30.70;16.81
56518;BME280;42419;48.760;2.322;2022-12-18T00:48:25;101642.19;;;30.71;17.88
56518;BME280;42419;48.760;2.322;2022-12-18T00:50:51;101647.22;;;30.77;17.92
56518;BME280;42419;48.760;2.322;2022-12-18T00:53:16;101637.16;;;30.65;18.28
56518;BME280;42419;48.760;2.322;2022-12-18T00:55:42;101660.03;;;30.75;18.36
56518;BME280;42419;48.760;2.322;2022-12-18T00:58:09;101635.31;;;30.65;18.02
56518;BME280;42419;48.760;2.322;2022-12-18T01:00:35;101630.66;;;30.67;17.81
56518;BME280;42419;48.760;2.322;2022-12-18T01:03:01;101621.06;;;30.62;17.97
56518;BME280;42419;48.760;2.322;2022-12-18T01:05:26;101645.59;;;30.75;17.37
56518;BME280;42419;48.760;2.322;2022-12-18T01:07:52;101643.19;;;30.70;17.40
56518;BME280;42419;48.760;2.322;2022-12-18T01:10:17;101617.69;;;30.58;17.82
56518;BME280;42419;48.760;2.322;2022-12-18T01:12:43;101614.34;;;30.67;17.53
56518;BME280;42419;48.760;2.322;2022-12-18T01:15:10;101624.81;;;30.73;17.60
56518;BME280;42419;48.760;2.322;2022-12-18T01:17:35;101634.91;;;30.71;17.78
56518;BME280;42419;48.760;2.322;2022-12-18T01:20:01;101617.59;;;30.60;17.21
56518;BME280;42419;48.760;2.322;2022-12-18T01:22:26;101629.00;;;30.65;17.29
56518;BME280;42419;48.760;2.322;2022-12-18T01:24:51;101611.81;;;30.64;17.04
56518;BME280;42419;48.760;2.322;2022-12-18T01:27:17;101612.78;;;30.63;17.11
56518;BME280;42419;48.760;2.322;2022-12-18T01:29:42;101629.78;;;30.67;16.86
56518;BME280;42419;48.760;2.322;2022-12-18T01:32:08;101638.59;;;30.70;17.30
56518;BME280;42419;48.760;2.322;2022-12-18T01:34:35;101621.72;;;30.65;16.85
56518;BME280;42419;48.760;2.322;2022-12-18T01:37:05;101613.91;;;30.61;16.65
56518;BME280;42419;48.760;2.322;2022-12-18T01:39:30;101626.19;;;30.66;16.59
56518;BME280;42419;48.760;2.322;2022-12-18T01:41:57;101631.31;;;30.71;17.11
56518;BME280;42419;48.760;2.322;2022-12-18T01:45:01;101635.69;;;30.73;16.69
56518;BME280;42419;48.760;2.322;2022-12-18T01:52:41;101616.19;;;30.67;16.46
56518;BME280;42419;48.760;2.322;2022-12-18T01:55:08;101615.22;;;30.68;16.86
56518;BME280;42419;48.760;2.322;2022-12-18T01:57:34;101617.38;;;30.76;16.70
56518;BME280;42419;48.760;2.322;2022-12-18T02:00:05;101613.78;;;30.75;16.95
56518;BME280;42419;48.760;2.322;2022-12-18T02:02:31;101591.91;;;30.64;16.47
56518;BME280;42419;48.760;2.322;2022-12-18T02:04:56;101598.03;;;30.67;16.25
56518;BME280;42419;48.760;2.322;2022-12-18T02:12:42;101596.84;;;30.71;16.22
56518;BME280;42419;48.760;2.322;2022-12-18T02:15:19;101585.50;;;30.65;16.31
56518;BME280;42419;48.760;2.322;2022-12-18T02:17:53;101604.81;;;30.75;16.10
56518;BME280;42419;48.760;2.322;2022-12-18T02:28:36;101584.66;;;30.77;16.27
56518;BME280;42419;48.760;2.322;2022-12-18T02:31:05;101576.84;;;30.72;15.98
56518;BME280;42419;48.760;2.322;2022-12-18T02:33:33;101580.53;;;30.71;16.43
56518;BME280;42419;48.760;2.322;2022-12-18T02:36:00;101585.53;;;30.78;15.77
56518;BME280;42419;48.760;2.322;2022-12-18T02:38:27;101588.25;;;30.78;16.19
56518;BME280;42419;48.760;2.322;2022-12-18T02:40:54;101565.19;;;30.70;16.15
56518;BME280;42419;48.760;2.322;2022-12-18T02:43:19;101581.84;;;30.79;15.99
56518;BME280;42419;48.760;2.322;2022-12-18T02:45:57;101576.06;;;30.83;16.09
56518;BME280;42419;48.760;2.322;2022-12-18T02:48:26;101567.03;;;30.83;15.66
56518;BME280;42419;48.760;2.322;2022-12-18T02:51:33;101563.34;;;30.84;15.74
56518;BME280;42419;48.760;2.322;2022-12-18T02:54:08;101566.16;;;30.82;16.06
56518;BME280;42419;48.760;2.322;2022-12-18T02:56:46;101552.81;;;30.79;15.90
56518;BME280;42419;48.760;2.322;2022-12-18T02:59:40;101552.66;;;30.81;15.95
56518;BME280;42419;48.760;2.322;2022-12-18T03:07:42;101532.34;;;30.73;15.69
56518;BME280;42419;48.760;2.322;2022-12-18T03:10:14;101552.47;;;30.84;15.46
56518;BME280;42419;48.760;2.322;2022-12-18T03:12:43;101551.59;;;30.83;15.38
56518;BME280;42419;48.760;2.322;2022-12-18T03:15:22;101535.81;;;30.76;15.42
56518;BME280;42419;48.760;2.322;2022-12-18T03:17:59;101556.91;;;30.85;15.45
56518;BME280;42419;48.760;2.322;2022-12-18T03:20:26;101555.19;;;30.84;15.48
56518;BME280;42419;48.760;2.322;2022-12-18T03:23:00;101547.56;;;30.76;15.45
56518;BME280;42419;48.760;2.322;2022-12-18T03:25:27;101556.91;;;30.85;15.84
56518;BME280;42419;48.760;2.322;2022-12-18T03:27:56;101563.13;;;30.87;15.26
56518;BME280;42419;48.760;2.322;2022-12-18T03:30:23;101565.72;;;30.88;15.74
56518;BME280;42419;48.760;2.322;2022-12-18T03:33:02;101563.84;;;30.89;15.13
56518;BME280;42419;48.760;2.322;2022-12-18T03:35:35;101554.63;;;30.91;15.22
56518;BME280;42419;48.760;2.322;2022-12-18T03:38:02;101554.63;;;30.91;15.65
56518;BME280;42419;48.760;2.322;2022-12-18T03:40:38;101560.16;;;30.90;15.28
56518;BME280;42419;48.760;2.322;2022-12-18T03:43:12;101550.25;;;30.89;15.07
56518;BME280;42419;48.760;2.322;2022-12-18T03:45:43;101558.31;;;30.90;15.05
56518;BME280;42419;48.760;2.322;2022-12-18T03:48:20;101533.63;;;30.81;15.18
56518;BME280;42419;48.760;2.322;2022-12-18T03:51:18;101552.63;;;30.93;15.21
56518;BME280;42419;48.760;2.322;2022-12-18T03:53:51;101536.00;;;30.85;15.16
56518;BME280;42419;48.760;2.322;2022-12-18T03:56:18;101522.56;;;30.84;15.39
56518;BME280;42419;48.760;2.322;2022-12-18T03:58:45;101538.16;;;30.93;15.65
56518;BME280;42419;48.760;2.322;2022-12-18T04:01:14;101533.59;;;30.93;14.96
56518;BME280;42419;48.760;2.322;2022-12-18T04:03:42;101526.31;;;30.94;15.01
56518;BME280;42419;48.760;2.322;2022-12-18T04:06:09;101530.78;;;30.95;15.42
56518;BME280;42419;48.760;2.322;2022-12-18T04:08:35;101517.50;;;30.90;15.45
56518;BME280;42419;48.760;2.322;2022-12-18T04:11:01;101518.28;;;30.92;15.08
56518;BME280;42419;48.760;2.322;2022-12-18T04:13:34;101528.94;;;30.95;14.94
56518;BME280;42419;48.760;2.322;2022-12-18T04:15:59;101499.91;;;30.83;15.45
56518;BME280;42419;48.760;2.322;2022-12-18T04:18:25;101521.84;;;30.93;15.36
56518;BME280;42419;48.760;2.322;2022-12-18T04:20:50;101531.66;;;30.95;15.34
56518;BME280;42419;48.760;2.322;2022-12-18T04:23:16;101529.91;;;30.94;15.46
56518;BME280;42419;48.760;2.322;2022-12-18T04:25:41;101513.34;;;30.97;15.43
56518;BME280;42419;48.760;2.322;2022-12-18T04:28:07;101520.53;;;30.98;14.94
56518;BME280;42419;48.760;2.322;2022-12-18T04:30:32;101516.94;;;30.98;15.25
56518;BME280;42419;48.760;2.322;2022-12-18T04:32:57;101510.75;;;30.96;15.16
56518;BME280;42419;48.760;2.322;2022-12-18T04:35:23;101523.06;;;31.01;15.63
56518;BME280;42419;48.760;2.322;2022-12-18T04:37:48;101521.06;;;31.03;15.26
56518;BME280;42419;48.760;2.322;2022-12-18T04:40:13;101503.34;;;30.98;14.68
56518;BME280;42419;48.760;2.322;2022-12-18T04:42:40;101496.00;;;30.87;15.25
56518;BME280;42419;48.760;2.322;2022-12-18T04:45:06;101520.34;;;31.01;14.84
56518;BME280;42419;48.760;2.322;2022-12-18T04:47:31;101531.41;;;30.98;15.05
56518;BME280;42419;48.760;2.322;2022-12-18T04:49:57;101543.06;;;31.00;15.12
56518;BME280;42419;48.760;2.322;2022-12-18T04:52:22;101544.03;;;30.99;14.82
56518;BME280;42419;48.760;2.322;2022-12-18T04:54:47;101540.56;;;30.97;15.33
56518;BME280;42419;48.760;2.322;2022-12-18T04:57:13;101541.22;;;31.01;14.85
56518;BME280;42419;48.760;2.322;2022-12-18T04:59:38;101499.38;;;30.78;15.30
56518;BME280;42419;48.760;2.322;2022-12-18T05:02:03;101532.28;;;30.99;15.01
56518;BME280;42419;48.760;2.322;2022-12-18T05:04:29;101533.78;;;31.03;14.84
56518;BME280;42419;48.760;2.322;2022-12-18T05:06:54;101529.34;;;31.02;15.14
56518;BME280;42419;48.760;2.322;2022-12-18T05:09:19;101531.72;;;31.06;14.97
56518;BME280;42419;48.760;2.322;2022-12-18T05:11:44;101536.41;;;31.04;15.13
56518;BME280;42419;48.760;2.322;2022-12-18T05:14:10;101529.66;;;30.97;14.62
56518;BME280;42419;48.760;2.322;2022-12-18T05:16:35;101557.06;;;31.07;14.77
56518;BME280;42419;48.760;2.322;2022-12-18T05:19:01;101498.84;;;30.73;15.21
56518;BME280;42419;48.760;2.322;2022-12-18T05:21:26;101535.53;;;31.04;14.70
56518;BME280;42419;48.760;2.322;2022-12-18T05:23:51;101530.53;;;30.98;15.13
56518;BME280;42419;48.760;2.322;2022-12-18T05:26:17;101492.28;;;30.76;14.87
56518;BME280;42419;48.760;2.322;2022-12-18T05:28:43;101548.38;;;31.02;15.06
56518;BME280;42419;48.760;2.322;2022-12-18T05:31:09;101558.91;;;31.06;15.05
56518;BME280;42419;48.760;2.322;2022-12-18T05:33:35;101565.22;;;31.07;14.97
56518;BME280;42419;48.760;2.322;2022-12-18T05:36:01;101564.38;;;31.06;14.53
56518;BME280;42419;48.760;2.322;2022-12-18T05:38:28;101568.09;;;31.05;14.63
56518;BME280;42419;48.760;2.322;2022-12-18T05:40:54;101569.06;;;31.04;15.00
56518;BME280;42419;48.760;2.322;2022-12-18T05:43:20;101568.19;;;31.04;14.68
56518;BME280;42419;48.760;2.322;2022-12-18T05:45:49;101561.88;;;31.03;15.11
56518;BME280;42419;48.760;2.322;2022-12-18T05:48:15;101555.22;;;31.07;14.99
56518;BME280;42419;48.760;2.322;2022-12-18T05:50:41;101539.13;;;31.04;14.56
56518;BME280;42419;48.760;2.322;2022-12-18T05:53:08;101537.72;;;30.99;14.86
56518;BME280;42419;48.760;2.322;2022-12-18T05:55:34;101547.06;;;31.07;14.46
56518;BME280;42419;48.760;2.322;2022-12-18T05:58:01;101526.75;;;31.00;14.50
56518;BME280;42419;48.760;2.322;2022-12-18T06:00:26;101532.50;;;31.08;14.39
56518;BME280;42419;48.760;2.322;2022-12-18T06:02:52;101520.72;;;31.08;14.40
56518;BME280;42419;48.760;2.322;2022-12-18T06:05:17;101513.00;;;31.02;14.83
56518;BME280;42419;48.760;2.322;2022-12-18T06:07:42;101519.75;;;31.09;14.89
56518;BME280;42419;48.760;2.322;2022-12-18T06:10:08;101508.56;;;31.01;14.35
56518;BME280;42419;48.760;2.322;2022-12-18T06:12:33;101518.00;;;31.08;15.00
56518;BME280;42419;48.760;2.322;2022-12-18T06:14:59;101508.25;;;31.05;14.92
56518;BME280;42419;48.760;2.322;2022-12-18T06:17:28;101519.22;;;31.04;14.78
56518;BME280;42419;48.760;2.322;2022-12-18T06:19:54;101524.31;;;31.08;14.87
56518;BME280;42419;48.760;2.322;2022-12-18T06:22:20;101517.28;;;31.06;14.48
56518;BME280;42419;48.760;2.322;2022-12-18T06:24:45;101525.31;;;31.07;14.71
56518;BME280;42419;48.760;2.322;2022-12-18T06:27:10;101526.16;;;31.08;14.51
56518;BME280;42419;48.760;2.322;2022-12-18T06:29:36;101518.78;;;31.10;14.44
56518;BME280;42419;48.760;2.322;2022-12-18T06:32:01;101524.84;;;31.13;14.62
56518;BME280;42419;48.760;2.322;2022-12-18T06:34:26;101528.44;;;31.14;15.23
56518;BME280;42419;48.760;2.322;2022-12-18T06:36:51;101535.63;;;31.15;15.23
56518;BME280;42419;48.760;2.322;2022-12-18T06:39:17;101533.69;;;31.17;14.87
56518;BME280;42419;48.760;2.322;2022-12-18T06:41:42;101537.34;;;31.16;14.75
56518;BME280;42419;48.760;2.322;2022-12-18T06:44:07;101525.72;;;31.14;15.01
56518;BME280;42419;48.760;2.322;2022-12-18T06:46:33;101530.72;;;31.20;14.54
56518;BME280;42419;48.760;2.322;2022-12-18T06:48:58;101523.56;;;31.19;14.61
56518;BME280;42419;48.760;2.322;2022-12-18T06:51:24;101519.75;;;31.22;15.55
56518;BME280;42419;48.760;2.322;2022-12-18T06:53:49;101507.00;;;31.22;14.80
56518;BME280;42419;48.760;2.322;2022-12-18T06:56:15;101501.94;;;31.29;14.77
56518;BME280;42419;48.760;2.322;2022-12-18T06:58:40;101498.88;;;31.33;14.87
56518;BME280;42419;48.760;2.322;2022-12-18T07:01:08;101502.38;;;31.35;14.80
56518;BME280;42419;48.760;2.322;2022-12-18T07:03:34;101510.19;;;31.40;14.86
56518;BME280;42419;48.760;2.322;2022-12-18T07:06:00;101496.69;;;31.38;14.76
56518;BME280;42419;48.760;2.322;2022-12-18T07:08:25;101487.03;;;31.34;14.58
56518;BME280;42419;48.760;2.322;2022-12-18T07:10:50;101503.28;;;31.47;15.08
56518;BME280;42419;48.760;2.322;2022-12-18T07:13:16;101490.91;;;31.43;14.70
56518;BME280;42419;48.760;2.322;2022-12-18T07:15:42;101483.34;;;31.46;14.99
56518;BME280;42419;48.760;2.322;2022-12-18T07:18:08;101495.44;;;31.55;15.07
56518;BME280;42419;48.760;2.322;2022-12-18T07:20:33;101427.09;;;31.23;15.13
56518;BME280;42419;48.760;2.322;2022-12-18T07:23:01;101472.00;;;31.52;15.16
56518;BME280;42419;48.760;2.322;2022-12-18T07:25:27;101486.91;;;31.59;14.66
56518;BME280;42419;48.760;2.322;2022-12-18T07:27:52;101489.28;;;31.64;14.63
56518;BME280;42419;48.760;2.322;2022-12-18T07:30:17;101480.25;;;31.64;14.69
56518;BME280;42419;48.760;2.322;2022-12-18T07:32:43;101497.31;;;31.66;14.67
56518;BME280;42419;48.760;2.322;2022-12-18T07:35:08;101508.88;;;31.69;14.89
56518;BME280;42419;48.760;2.322;2022-12-18T07:37:33;101500.84;;;31.68;14.94
56518;BME280;42419;48.760;2.322;2022-12-18T07:39:59;101487.38;;;31.53;15.21
56518;BME280;42419;48.760;2.322;2022-12-18T07:42:24;101499.41;;;31.62;15.51
56518;BME280;42419;48.760;2.322;2022-12-18T07:44:56;101503.59;;;31.55;14.52
56518;BME280;42419;48.760;2.322;2022-12-18T07:47:21;101521.09;;;31.64;14.94
56518;BME280;42419;48.760;2.322;2022-12-18T07:49:47;101535.38;;;31.67;14.47
56518;BME280;42419;48.760;2.322;2022-12-18T07:52:12;101517.69;;;31.60;14.38
56518;BME280;42419;48.760;2.322;2022-12-18T07:54:38;101515.31;;;31.68;15.20
56518;BME280;42419;48.760;2.322;2022-12-18T07:57:04;101510.75;;;31.69;14.37
56518;BME280;42419;48.760;2.322;2022-12-18T07:59:29;101499.41;;;31.62;14.99
56518;BME280;42419;48.760;2.322;2022-12-18T08:01:54;101491.25;;;31.62;14.89
56518;BME280;42419;48.760;2.322;2022-12-18T08:04:20;101508.22;;;31.66;14.88
56518;BME280;42419;48.760;2.322;2022-12-18T08:06:45;101512.34;;;31.71;14.42
56518;BME280;42419;48.760;2.322;2022-12-18T08:09:11;101515.19;;;31.70;14.98
56518;BME280;42419;48.760;2.322;2022-12-18T08:11:36;101510.50;;;31.72;14.82
56518;BME280;42419;48.760;2.322;2022-12-18T08:14:01;101509.63;;;31.71;14.36
56518;BME280;42419;48.760;2.322;2022-12-18T08:16:27;101506.03;;;31.71;14.79
56518;BME280;42419;48.760;2.322;2022-12-18T08:18:53;101517.69;;;31.73;14.68
56518;BME280;42419;48.760;2.322;2022-12-18T08:21:24;101511.59;;;31.69;14.40
56518;BME280;42419;48.760;2.322;2022-12-18T08:23:51;101524.22;;;31.70;14.78
56518;BME280;42419;48.760;2.322;2022-12-18T08:26:17;101527.09;;;31.69;14.62
56518;BME280;42419;48.760;2.322;2022-12-18T08:28:43;101531.31;;;31.73;14.38
56518;BME280;42419;48.760;2.322;2022-12-18T08:31:09;101521.81;;;31.66;14.94
56518;BME280;42419;48.760;2.322;2022-12-18T08:33:35;101529.06;;;31.67;14.42
56518;BME280;42419;48.760;2.322;2022-12-18T08:36:01;101534.50;;;31.67;15.02
56518;BME280;42419;48.760;2.322;2022-12-18T08:38:27;101522.38;;;31.71;14.80
56518;BME280;42419;48.760;2.322;2022-12-18T08:41:06;101519.53;;;31.72;15.04
56518;BME280;42419;48.760;2.322;2022-12-18T08:43:32;101530.44;;;31.72;14.91
56518;BME280;42419;48.760;2.322;2022-12-18T08:46:16;101544.28;;;31.69;14.85
56518;BME280;42419;48.760;2.322;2022-12-18T08:48:42;101546.44;;;31.77;14.71
56518;BME280;42419;48.760;2.322;2022-12-18T08:51:08;101530.31;;;31.74;14.85
56518;BME280;42419;48.760;2.322;2022-12-18T08:53:35;101549.16;;;31.77;15.09
56518;BME280;42419;48.760;2.322;2022-12-18T08:56:01;101544.06;;;31.72;14.88
56518;BME280;42419;48.760;2.322;2022-12-18T08:58:26;101554.47;;;31.78;14.63
56518;BME280;42419;48.760;2.322;2022-12-18T09:00:52;101552.63;;;31.79;14.95
56518;BME280;42419;48.760;2.322;2022-12-18T09:03:18;101544.44;;;31.79;15.30
56518;BME280;42419;48.760;2.322;2022-12-18T09:05:45;101537.03;;;31.81;15.46
56518;BME280;42419;48.760;2.322;2022-12-18T09:08:11;101536.06;;;31.82;14.84
56518;BME280;42419;48.760;2.322;2022-12-18T09:10:44;101530.59;;;31.82;15.23
56518;BME280;42419;48.760;2.322;2022-12-18T09:13:13;101530.59;;;31.82;15.29
56518;BME280;42419;48.760;2.322;2022-12-18T09:15:49;101534.16;;;31.82;15.32
56518;BME280;42419;48.760;2.322;2022-12-18T09:18:15;101529.06;;;31.78;15.07
56518;BME280;42419;48.760;2.322;2022-12-18T09:20:42;101536.41;;;31.77;15.76
56518;BME280;42419;48.760;2.322;2022-12-18T09:23:08;101527.81;;;31.71;15.29
56518;BME280;42419;48.760;2.322;2022-12-18T09:25:34;101531.31;;;31.73;15.56
56518;BME280;42419;48.760;2.322;2022-12-18T09:28:02;101536.75;;;31.73;15.19
56518;BME280;42419;48.760;2.322;2022-12-18T09:30:28;101533.38;;;31.69;14.73
56518;BME280;42419;48.760;2.322;2022-12-18T09:32:54;101531.84;;;31.65;15.70
56518;BME280;42419;48.760;2.322;2022-12-18T09:35:19;101529.06;;;31.67;15.42
56518;BME280;42419;48.760;2.322;2022-12-18T09:37:44;101531.97;;;31.64;15.70
56518;BME280;42419;48.760;2.322;2022-12-18T09:40:18;101527.28;;;31.66;15.81
56518;BME280;42419;48.760;2.322;2022-12-18T09:42:52;101518.81;;;31.57;15.67
56518;BME280;42419;48.760;2.322;2022-12-18T09:45:19;101527.63;;;31.61;15.58
56518;BME280;42419;48.760;2.322;2022-12-18T09:47:47;101536.66;;;31.61;15.37
56518;BME280;42419;48.760;2.322;2022-12-18T09:50:25;101534.50;;;31.67;15.88
56518;BME280;42419;48.760;2.322;2022-12-18T09:52:55;101523.59;;;31.67;15.56
56518;BME280;42419;48.760;2.322;2022-12-18T09:57:56;101517.19;;;31.68;15.30
56518;BME280;42419;48.760;2.322;2022-12-18T10:00:24;101516.19;;;31.69;15.58
56518;BME280;42419;48.760;2.322;2022-12-18T10:02:52;101523.25;;;31.71;15.19
56518;BME280;42419;48.760;2.322;2022-12-18T10:05:34;101517.69;;;31.73;15.40
56518;BME280;42419;48.760;2.322;2022-12-18T10:10:52;101518.91;;;31.69;15.21
56518;BME280;42419;48.760;2.322;2022-12-18T10:13:31;101514.31;;;31.69;15.93
56518;BME280;42419;48.760;2.322;2022-12-18T10:21:13;101511.59;;;31.69;15.85
56518;BME280;42419;48.760;2.322;2022-12-18T10:24:05;101506.13;;;31.69;15.90
56518;BME280;42419;48.760;2.322;2022-12-18T10:26:38;101505.41;;;31.67;15.48
56518;BME280;42419;48.760;2.322;2022-12-18T10:29:11;101503.09;;;31.61;15.72
56518;BME280;42419;48.760;2.322;2022-12-18T10:31:37;101496.78;;;31.60;15.43
56518;BME280;42419;48.760;2.322;2022-12-18T10:34:02;101487.88;;;31.58;15.45
56518;BME280;42419;48.760;2.322;2022-12-18T10:36:27;101495.81;;;31.61;15.78
56518;BME280;42419;48.760;2.322;2022-12-18T10:38:53;101493.97;;;31.62;15.42
56518;BME280;42419;48.760;2.322;2022-12-18T10:43:44;101484.66;;;31.53;15.25
56518;BME280;42419;48.760;2.322;2022-12-18T10:48:50;101491.59;;;31.57;15.13
56518;BME280;42419;48.760;2.322;2022-12-18T10:51:26;101468.78;;;31.47;15.42
56518;BME280;42419;48.760;2.322;2022-12-18T10:53:56;101454.63;;;31.42;15.61
56518;BME280;42419;48.760;2.322;2022-12-18T10:56:22;101484.28;;;31.58;15.39
56518;BME280;42419;48.760;2.322;2022-12-18T10:59:00;101486.16;;;31.57;15.36
56518;BME280;42419;48.760;2.322;2022-12-18T11:01:26;101491.34;;;31.60;15.53
56518;BME280;42419;48.760;2.322;2022-12-18T11:06:19;101482.66;;;31.55;15.40
56518;BME280;42419;48.760;2.322;2022-12-18T11:09:19;101490.09;;;31.53;15.30
56518;BME280;42419;48.760;2.322;2022-12-18T11:11:52;101482.28;;;31.49;15.48
56518;BME280;42419;48.760;2.322;2022-12-18T11:14:29;101476.06;;;31.47;15.51
56518;BME280;42419;48.760;2.322;2022-12-18T11:16:57;101475.34;;;31.45;15.47
56518;BME280;42419;48.760;2.322;2022-12-18T11:19:40;101469.13;;;31.43;15.92
56518;BME280;42419;48.760;2.322;2022-12-18T11:22:29;101461.81;;;31.43;15.29
56518;BME280;42419;48.760;2.322;2022-12-18T11:24:58;101456.88;;;31.37;15.63
56518;BME280;42419;48.760;2.322;2022-12-18T11:27:25;101459.34;;;31.40;15.79
56518;BME280;42419;48.760;2.322;2022-12-18T11:29:51;101445.25;;;31.46;15.89
56518;BME280;42419;48.760;2.322;2022-12-18T11:34:54;101448.72;;;31.48;15.29
56518;BME280;42419;48.760;2.322;2022-12-18T11:37:23;101451.47;;;31.48;15.97
56518;BME280;42419;48.760;2.322;2022-12-18T11:40:16;101447.00;;;31.47;15.51
56518;BME280;42419;48.760;2.322;2022-12-18T11:43:02;101435.59;;;31.42;15.48
56518;BME280;42419;48.760;2.322;2022-12-18T11:45:34;101439.31;;;31.41;15.55
56518;BME280;42419;48.760;2.322;2022-12-18T11:48:05;101430.91;;;31.44;15.45
56518;BME280;42419;48.760;2.322;2022-12-18T11:50:46;101423.47;;;31.46;16.38
56518;BME280;42419;48.760;2.322;2022-12-18T11:53:14;101409.84;;;31.35;16.72
56518;BME280;42419;48.760;2.322;2022-12-18T12:09:38;101416.06;;;31.48;17.85
56518;BME280;42419;48.760;2.322;2022-12-18T12:15:31;101398.34;;;31.43;18.84
56518;BME280;42419;48.760;2.322;2022-12-18T12:18:17;101396.13;;;31.48;18.70
56518;BME280;42419;48.760;2.322;2022-12-18T12:26:08;101379.38;;;31.30;19.32
56518;BME280;42419;48.760;2.322;2022-12-18T12:31:33;101371.97;;;31.32;20.36
56518;BME280;42419;48.760;2.322;2022-12-18T12:34:23;101383.47;;;31.36;20.19
56518;BME280;42419;48.760;2.322;2022-12-18T12:37:18;101378.16;;;31.34;20.33
56518;BME280;42419;48.760;2.322;2022-12-18T12:39:46;101374.69;;;31.32;20.17
56518;BME280;42419;48.760;2.322;2022-12-18T12:42:20;101395.25;;;31.36;20.39
56518;BME280;42419;48.760;2.322;2022-12-18T12:45:19;101382.72;;;31.34;20.85
56518;BME280;42419;48.760;2.322;2022-12-18T12:47:48;101382.69;;;31.23;20.76
56518;BME280;42419;48.760;2.322;2022-12-18T12:50:16;101385.63;;;31.20;21.03
56518;BME280;42419;48.760;2.322;2022-12-18T12:52:50;101395.06;;;31.27;21.30
56518;BME280;42419;48.760;2.322;2022-12-18T12:55:23;101385.28;;;31.24;20.47
56518;BME280;42419;48.760;2.322;2022-12-18T12:58:19;101380.72;;;31.25;20.29
56518;BME280;42419;48.760;2.322;2022-12-18T13:01:09;101377.25;;;31.23;20.45
56518;BME280;42419;48.760;2.322;2022-12-18T13:06:04;101369.44;;;31.18;20.87
56518;BME280;42419;48.760;2.322;2022-12-18T13:08:55;101371.59;;;31.13;20.61
56518;BME280;42419;48.760;2.322;2022-12-18T13:11:50;101374.56;;;31.10;21.09
56518;BME280;42419;48.760;2.322;2022-12-18T13:14:39;101363.91;;;31.07;20.80
56518;BME280;42419;48.760;2.322;2022-12-18T13:19:50;101352.03;;;31.08;20.59
56518;BME280;42419;48.760;2.322;2022-12-18T13:22:24;101349.31;;;31.08;20.02
56518;BME280;42419;48.760;2.322;2022-12-18T13:24:50;101338.19;;;31.11;20.03
56518;BME280;42419;48.760;2.322;2022-12-18T13:38:34;101336.19;;;31.02;20.12
56518;BME280;42419;48.760;2.322;2022-12-18T13:43:47;101319.72;;;30.92;20.03
56518;BME280;42419;48.760;2.322;2022-12-18T13:48:55;101331.09;;;30.97;19.83
56518;BME280;42419;48.760;2.322;2022-12-18T13:51:21;101320.34;;;30.96;20.42
56518;BME280;42419;48.760;2.322;2022-12-18T13:54:18;101313.94;;;30.97;20.22
56518;BME280;42419;48.760;2.322;2022-12-18T13:56:46;101304.25;;;30.93;20.32
56518;BME280;42419;48.760;2.322;2022-12-18T13:59:26;101297.72;;;30.95;19.63
56518;BME280;42419;48.760;2.322;2022-12-18T14:01:57;101292.75;;;30.89;19.91
56518;BME280;42419;48.760;2.322;2022-12-18T14:04:32;101291.13;;;30.87;20.25
56518;BME280;42419;48.760;2.322;2022-12-18T14:07:04;101292.88;;;30.88;20.12
56518;BME280;42419;48.760;2.322;2022-12-18T14:09:34;101285.59;;;30.88;19.66
56518;BME280;42419;48.760;2.322;2022-12-18T14:12:01;101272.56;;;30.81;20.46
56518;BME280;42419;48.760;2.322;2022-12-18T14:14:50;101279.84;;;30.80;19.95
56518;BME280;42419;48.760;2.322;2022-12-18T14:17:17;101285.69;;;30.87;19.83
56518;BME280;42419;48.760;2.322;2022-12-18T14:19:50;101281.47;;;30.83;20.04
56518;BME280;42419;48.760;2.322;2022-12-18T14:22:18;101265.50;;;30.78;19.96
56518;BME280;42419;48.760;2.322;2022-12-18T14:24:45;101276.78;;;30.85;19.74
56518;BME280;42419;48.760;2.322;2022-12-18T14:27:24;101270.81;;;30.80;20.05
56518;BME280;42419;48.760;2.322;2022-12-18T14:29:50;101263.16;;;30.73;19.53
56518;BME280;42419;48.760;2.322;2022-12-18T14:32:18;101277.63;;;30.85;19.58
56518;BME280;42419;48.760;2.322;2022-12-18T14:34:51;101279.75;;;30.82;19.77